sensor_id;sensor_type;location;lat;lon;timestamp;P1;durP1;ratioP1;P2;durP2;ratioP2
18102;SDS011;9178;51.120;6.192;2023-05-07T00:02:22;14.43;;;12.90;;
18102;SDS011;9178;51.120;6.192;2023-05-07T00:04:50;14.43;;;12.93;;
18102;SDS011;9178;51.120;6.192;2023-05-07T00:07:18;15.37;;;13.73;;
18102;SDS011;9178;51.120;6.192;2023-05-07T00:09:45;17.53;;;14.27;;
18102;SDS011;9178;51.120;6.192;2023-05-07T00:12:11;15.80;;;14.03;;
18102;SDS011;9178;51.120;6.192;2023-05-07T00:14:38;16.50;;;14.77;;
18102;SDS011;9178;51.120;6.192;2023-05-07T00:17:05;15.37;;;13.60;;
18102;SDS011;9178;51.120;6.192;2023-05-07T00:19:33;15.57;;;13.97;;
18102;SDS011;9178;51.120;6.192;2023-05-07T00:22:00;15.43;;;13.83;;
18102;SDS011;9178;51.120;6.192;2023-05-07T00:24:28;17.23;;;14.40;;
18102;SDS011;9178;51.120;6.192;2023-05-07T00:26:54;16.83;;;14.07;;
18102;SDS011;9178;51.120;6.192;2023-05-07T00:29:23;18.50;;;14.37;;
18102;SDS011;9178;51.120;6.192;2023-05-07T00:31:50;18.20;;;14.77;;
18102;SDS011;9178;51.120;6.192;2023-05-07T00:34:18;17.50;;;15.03;;
18102;SDS011;9178;51.120;6.192;2023-05-07T00:36:45;16.80;;;14.57;;
18102;SDS011;9178;51.120;6.192;2023-05-07T00:39:12;17.63;;;15.30;;
18102;SDS011;9178;51.120;6.192;2023-05-07T00:41:40;17.00;;;15.20;;
18102;SDS011;9178;51.120;6.192;2023-05-07T00:44:07;19.70;;;15.30;;
18102;SDS011;9178;51.120;6.192;2023-05-07T00:46:34;17.23;;;15.43;;
18102;SDS011;9178;51.120;6.192;2023-05-07T00:49:00;17.23;;;14.53;;
18102;SDS011;9178;51.120;6.192;2023-05-07T00:51:28;19.27;;;15.20;;
18102;SDS011;9178;51.120;6.192;2023-05-07T00:53:56;20.07;;;16.23;;
18102;SDS011;9178;51.120;6.192;2023-05-07T00:56:22;20.63;;;15.23;;
18102;SDS011;9178;51.120;6.192;2023-05-07T00:58:52;18.73;;;14.73;;
18102;SDS011;9178;51.120;6.192;2023-05-07T01:01:19;16.10;;;14.40;;
18102;SDS011;9178;51.120;6.192;2023-05-07T01:03:46;19.07;;;15.60;;
18102;SDS011;9178;51.120;6.192;2023-05-07T01:06:13;20.67;;;15.60;;
18102;SDS011;9178;51.120;6.192;2023-05-07T01:08:41;19.57;;;14.93;;
18102;SDS011;9178;51.120;6.192;2023-05-07T01:11:08;16.20;;;14.00;;
18102;SDS011;9178;51.120;6.192;2023-05-07T01:13:37;16.53;;;14.73;;
18102;SDS011;9178;51.120;6.192;2023-05-07T01:16:06;16.00;;;14.27;;
18102;SDS011;9178;51.120;6.192;2023-05-07T01:18:35;17.43;;;14.33;;
18102;SDS011;9178;51.120;6.192;2023-05-07T01:21:02;16.87;;;13.47;;
18102;SDS011;9178;51.120;6.192;2023-05-07T01:23:32;19.07;;;14.47;;
18102;SDS011;9178;51.120;6.192;2023-05-07T01:26:00;20.33;;;14.20;;
18102;SDS011;9178;51.120;6.192;2023-05-07T01:28:27;16.63;;;14.23;;
18102;SDS011;9178;51.120;6.192;2023-05-07T01:30:54;18.87;;;14.47;;
18102;SDS011;9178;51.120;6.192;2023-05-07T01:33:26;19.67;;;13.10;;
18102;SDS011;9178;51.120;6.192;2023-05-07T01:35:56;18.57;;;13.70;;
18102;SDS011;9178;51.120;6.192;2023-05-07T01:38:25;19.63;;;14.73;;
18102;SDS011;9178;51.120;6.192;2023-05-07T01:40:54;16.13;;;13.73;;
18102;SDS011;9178;51.120;6.192;2023-05-07T01:43:22;16.43;;;14.00;;
18102;SDS011;9178;51.120;6.192;2023-05-07T01:45:49;15.80;;;14.00;;
18102;SDS011;9178;51.120;6.192;2023-05-07T01:48:16;17.10;;;14.53;;
18102;SDS011;9178;51.120;6.192;2023-05-07T01:50:43;18.23;;;14.33;;
18102;SDS011;9178;51.120;6.192;2023-05-07T01:53:10;16.97;;;14.47;;
18102;SDS011;9178;51.120;6.192;2023-05-07T01:55:37;16.53;;;14.60;;
18102;SDS011;9178;51.120;6.192;2023-05-07T01:58:06;20.27;;;14.87;;
18102;SDS011;9178;51.120;6.192;2023-05-07T02:00:33;19.53;;;14.30;;
18102;SDS011;9178;51.120;6.192;2023-05-07T02:03:00;15.97;;;13.53;;
18102;SDS011;9178;51.120;6.192;2023-05-07T02:05:27;15.97;;;13.30;;
18102;SDS011;9178;51.120;6.192;2023-05-07T02:07:53;17.93;;;12.93;;
18102;SDS011;9178;51.120;6.192;2023-05-07T02:10:20;16.87;;;12.97;;
18102;SDS011;9178;51.120;6.192;2023-05-07T02:12:47;16.93;;;13.17;;
18102;SDS011;9178;51.120;6.192;2023-05-07T02:15:15;16.77;;;13.13;;
18102;SDS011;9178;51.120;6.192;2023-05-07T02:20:25;16.93;;;13.53;;
18102;SDS011;9178;51.120;6.192;2023-05-07T02:22:51;16.60;;;13.00;;
18102;SDS011;9178;51.120;6.192;2023-05-07T02:25:18;14.63;;;12.23;;
18102;SDS011;9178;51.120;6.192;2023-05-07T02:27:45;16.10;;;11.90;;
18102;SDS011;9178;51.120;6.192;2023-05-07T02:30:12;15.13;;;11.90;;
18102;SDS011;9178;51.120;6.192;2023-05-07T02:32:40;14.23;;;12.10;;
18102;SDS011;9178;51.120;6.192;2023-05-07T02:35:07;15.43;;;12.33;;
18102;SDS011;9178;51.120;6.192;2023-05-07T02:37:34;19.50;;;13.67;;
18102;SDS011;9178;51.120;6.192;2023-05-07T02:40:01;18.03;;;12.10;;
18102;SDS011;9178;51.120;6.192;2023-05-07T02:42:29;16.77;;;12.60;;
18102;SDS011;9178;51.120;6.192;2023-05-07T02:44:56;17.83;;;13.03;;
18102;SDS011;9178;51.120;6.192;2023-05-07T02:47:22;14.87;;;12.00;;
18102;SDS011;9178;51.120;6.192;2023-05-07T02:49:53;18.77;;;13.10;;
18102;SDS011;9178;51.120;6.192;2023-05-07T02:52:19;16.67;;;12.53;;
18102;SDS011;9178;51.120;6.192;2023-05-07T02:54:46;19.67;;;12.83;;
18102;SDS011;9178;51.120;6.192;2023-05-07T02:57:13;16.73;;;12.07;;
18102;SDS011;9178;51.120;6.192;2023-05-07T02:59:40;17.93;;;12.97;;
18102;SDS011;9178;51.120;6.192;2023-05-07T03:02:08;18.67;;;13.33;;
18102;SDS011;9178;51.120;6.192;2023-05-07T03:04:35;20.63;;;12.53;;
18102;SDS011;9178;51.120;6.192;2023-05-07T03:07:03;18.60;;;13.10;;
18102;SDS011;9178;51.120;6.192;2023-05-07T03:09:32;20.70;;;13.83;;
18102;SDS011;9178;51.120;6.192;2023-05-07T03:11:59;22.43;;;13.73;;
18102;SDS011;9178;51.120;6.192;2023-05-07T03:14:26;19.87;;;13.03;;
18102;SDS011;9178;51.120;6.192;2023-05-07T03:16:53;18.10;;;13.17;;
18102;SDS011;9178;51.120;6.192;2023-05-07T03:19:20;18.03;;;12.10;;
18102;SDS011;9178;51.120;6.192;2023-05-07T03:21:47;19.80;;;13.03;;
18102;SDS011;9178;51.120;6.192;2023-05-07T03:24:15;18.57;;;13.33;;
18102;SDS011;9178;51.120;6.192;2023-05-07T03:26:41;18.07;;;13.47;;
18102;SDS011;9178;51.120;6.192;2023-05-07T03:29:08;19.27;;;13.27;;
18102;SDS011;9178;51.120;6.192;2023-05-07T03:31:35;21.10;;;13.83;;
18102;SDS011;9178;51.120;6.192;2023-05-07T03:34:02;20.07;;;12.73;;
18102;SDS011;9178;51.120;6.192;2023-05-07T03:36:28;23.73;;;13.23;;
18102;SDS011;9178;51.120;6.192;2023-05-07T03:38:55;23.43;;;14.00;;
18102;SDS011;9178;51.120;6.192;2023-05-07T03:41:23;20.10;;;13.47;;
18102;SDS011;9178;51.120;6.192;2023-05-07T03:43:50;23.10;;;13.57;;
18102;SDS011;9178;51.120;6.192;2023-05-07T03:46:17;20.83;;;13.83;;
18102;SDS011;9178;51.120;6.192;2023-05-07T03:48:44;22.13;;;14.43;;
18102;SDS011;9178;51.120;6.192;2023-05-07T03:51:10;23.07;;;14.47;;
18102;SDS011;9178;51.120;6.192;2023-05-07T03:53:37;20.70;;;13.10;;
18102;SDS011;9178;51.120;6.192;2023-05-07T03:56:04;20.90;;;13.40;;
18102;SDS011;9178;51.120;6.192;2023-05-07T03:58:32;23.57;;;12.83;;
18102;SDS011;9178;51.120;6.192;2023-05-07T04:00:59;21.27;;;13.87;;
18102;SDS011;9178;51.120;6.192;2023-05-07T04:03:26;21.53;;;13.13;;
18102;SDS011;9178;51.120;6.192;2023-05-07T04:05:53;23.13;;;12.70;;
18102;SDS011;9178;51.120;6.192;2023-05-07T04:08:20;23.53;;;13.87;;
18102;SDS011;9178;51.120;6.192;2023-05-07T04:10:47;22.87;;;14.07;;
18102;SDS011;9178;51.120;6.192;2023-05-07T04:13:13;21.53;;;12.77;;
18102;SDS011;9178;51.120;6.192;2023-05-07T04:15:41;20.73;;;13.37;;
18102;SDS011;9178;51.120;6.192;2023-05-07T04:18:08;24.53;;;13.73;;
18102;SDS011;9178;51.120;6.192;2023-05-07T04:20:35;23.43;;;13.83;;
18102;SDS011;9178;51.120;6.192;2023-05-07T04:23:02;18.07;;;11.10;;
18102;SDS011;9178;51.120;6.192;2023-05-07T04:25:29;20.30;;;12.90;;
18102;SDS011;9178;51.120;6.192;2023-05-07T04:27:55;23.27;;;13.63;;
18102;SDS011;9178;51.120;6.192;2023-05-07T04:30:22;17.93;;;12.23;;
18102;SDS011;9178;51.120;6.192;2023-05-07T04:32:50;20.60;;;12.03;;
18102;SDS011;9178;51.120;6.192;2023-05-07T04:35:17;19.33;;;11.50;;
18102;SDS011;9178;51.120;6.192;2023-05-07T04:37:44;16.60;;;11.33;;
18102;SDS011;9178;51.120;6.192;2023-05-07T04:40:11;19.23;;;11.57;;
18102;SDS011;9178;51.120;6.192;2023-05-07T04:42:38;19.20;;;12.00;;
18102;SDS011;9178;51.120;6.192;2023-05-07T04:45:05;19.07;;;12.40;;
18102;SDS011;9178;51.120;6.192;2023-05-07T04:47:33;20.50;;;12.13;;
18102;SDS011;9178;51.120;6.192;2023-05-07T04:50:01;18.00;;;11.40;;
18102;SDS011;9178;51.120;6.192;2023-05-07T04:52:28;18.63;;;11.80;;
18102;SDS011;9178;51.120;6.192;2023-05-07T04:54:56;16.70;;;11.87;;
18102;SDS011;9178;51.120;6.192;2023-05-07T04:57:25;17.20;;;11.50;;
18102;SDS011;9178;51.120;6.192;2023-05-07T04:59:52;16.63;;;10.67;;
18102;SDS011;9178;51.120;6.192;2023-05-07T05:02:19;21.37;;;12.03;;
18102;SDS011;9178;51.120;6.192;2023-05-07T05:04:45;16.47;;;11.40;;
18102;SDS011;9178;51.120;6.192;2023-05-07T05:07:13;19.63;;;11.77;;
18102;SDS011;9178;51.120;6.192;2023-05-07T05:09:40;18.23;;;11.97;;
18102;SDS011;9178;51.120;6.192;2023-05-07T05:12:07;17.93;;;11.90;;
18102;SDS011;9178;51.120;6.192;2023-05-07T05:14:34;20.63;;;12.20;;
18102;SDS011;9178;51.120;6.192;2023-05-07T05:17:00;18.30;;;12.90;;
18102;SDS011;9178;51.120;6.192;2023-05-07T05:19:27;20.67;;;11.83;;
18102;SDS011;9178;51.120;6.192;2023-05-07T05:21:54;23.97;;;13.23;;
18102;SDS011;9178;51.120;6.192;2023-05-07T05:24:22;19.73;;;13.17;;
18102;SDS011;9178;51.120;6.192;2023-05-07T05:26:49;22.33;;;13.33;;
18102;SDS011;9178;51.120;6.192;2023-05-07T05:29:15;18.73;;;12.73;;
18102;SDS011;9178;51.120;6.192;2023-05-07T05:31:42;19.00;;;12.93;;
18102;SDS011;9178;51.120;6.192;2023-05-07T05:34:09;19.10;;;12.60;;
18102;SDS011;9178;51.120;6.192;2023-05-07T05:36:36;18.67;;;12.43;;
18102;SDS011;9178;51.120;6.192;2023-05-07T05:39:03;20.40;;;13.17;;
18102;SDS011;9178;51.120;6.192;2023-05-07T05:41:32;19.03;;;13.03;;
18102;SDS011;9178;51.120;6.192;2023-05-07T05:43:59;17.80;;;12.63;;
18102;SDS011;9178;51.120;6.192;2023-05-07T05:46:26;16.50;;;12.50;;
18102;SDS011;9178;51.120;6.192;2023-05-07T05:48:52;16.07;;;11.37;;
18102;SDS011;9178;51.120;6.192;2023-05-07T05:51:20;19.73;;;12.40;;
18102;SDS011;9178;51.120;6.192;2023-05-07T05:53:47;21.63;;;13.37;;
18102;SDS011;9178;51.120;6.192;2023-05-07T05:56:13;20.23;;;12.93;;
18102;SDS011;9178;51.120;6.192;2023-05-07T05:58:42;20.00;;;12.97;;
18102;SDS011;9178;51.120;6.192;2023-05-07T06:01:09;23.77;;;13.50;;
18102;SDS011;9178;51.120;6.192;2023-05-07T06:03:37;19.23;;;12.47;;
18102;SDS011;9178;51.120;6.192;2023-05-07T06:06:03;18.97;;;12.47;;
18102;SDS011;9178;51.120;6.192;2023-05-07T06:08:30;19.37;;;13.10;;
18102;SDS011;9178;51.120;6.192;2023-05-07T06:10:57;19.50;;;12.63;;
18102;SDS011;9178;51.120;6.192;2023-05-07T06:13:25;18.70;;;12.60;;
18102;SDS011;9178;51.120;6.192;2023-05-07T06:15:53;15.30;;;10.50;;
18102;SDS011;9178;51.120;6.192;2023-05-07T06:18:19;15.50;;;11.03;;
18102;SDS011;9178;51.120;6.192;2023-05-07T06:20:46;17.77;;;11.30;;
18102;SDS011;9178;51.120;6.192;2023-05-07T06:23:13;16.20;;;10.97;;
18102;SDS011;9178;51.120;6.192;2023-05-07T06:25:40;14.43;;;10.47;;
18102;SDS011;9178;51.120;6.192;2023-05-07T06:28:07;16.15;;;10.15;;
18102;SDS011;9178;51.120;6.192;2023-05-07T06:30:36;14.30;;;10.20;;
18102;SDS011;9178;51.120;6.192;2023-05-07T06:33:04;13.48;;;9.70;;
18102;SDS011;9178;51.120;6.192;2023-05-07T06:35:31;17.02;;;10.15;;
18102;SDS011;9178;51.120;6.192;2023-05-07T06:37:57;14.20;;;9.88;;
18102;SDS011;9178;51.120;6.192;2023-05-07T06:40:24;12.52;;;9.38;;
18102;SDS011;9178;51.120;6.192;2023-05-07T06:42:51;10.77;;;8.60;;
18102;SDS011;9178;51.120;6.192;2023-05-07T06:45:19;11.30;;;7.90;;
18102;SDS011;9178;51.120;6.192;2023-05-07T06:47:45;10.63;;;7.72;;
18102;SDS011;9178;51.120;6.192;2023-05-07T06:50:14;14.90;;;7.05;;
18102;SDS011;9178;51.120;6.192;2023-05-07T06:52:41;9.95;;;7.05;;
18102;SDS011;9178;51.120;6.192;2023-05-07T06:55:08;10.65;;;7.20;;
18102;SDS011;9178;51.120;6.192;2023-05-07T06:57:36;11.25;;;8.63;;
18102;SDS011;9178;51.120;6.192;2023-05-07T07:00:04;11.80;;;8.38;;
18102;SDS011;9178;51.120;6.192;2023-05-07T07:02:34;11.30;;;7.95;;
18102;SDS011;9178;51.120;6.192;2023-05-07T07:05:00;11.48;;;7.53;;
18102;SDS011;9178;51.120;6.192;2023-05-07T07:07:28;11.15;;;7.93;;
18102;SDS011;9178;51.120;6.192;2023-05-07T07:09:55;11.50;;;7.80;;
18102;SDS011;9178;51.120;6.192;2023-05-07T07:12:22;7.88;;;6.03;;
18102;SDS011;9178;51.120;6.192;2023-05-07T07:14:50;13.02;;;9.05;;
18102;SDS011;9178;51.120;6.192;2023-05-07T07:17:17;9.82;;;7.15;;
18102;SDS011;9178;51.120;6.192;2023-05-07T07:19:44;12.13;;;8.70;;
18102;SDS011;9178;51.120;6.192;2023-05-07T07:22:11;12.00;;;8.02;;
18102;SDS011;9178;51.120;6.192;2023-05-07T07:24:39;12.05;;;8.18;;
18102;SDS011;9178;51.120;6.192;2023-05-07T07:27:05;12.27;;;8.38;;
18102;SDS011;9178;51.120;6.192;2023-05-07T07:29:32;10.75;;;7.78;;
18102;SDS011;9178;51.120;6.192;2023-05-07T07:31:59;23.33;;;8.68;;
18102;SDS011;9178;51.120;6.192;2023-05-07T07:34:26;10.85;;;7.70;;
18102;SDS011;9178;51.120;6.192;2023-05-07T07:36:52;10.85;;;7.82;;
18102;SDS011;9178;51.120;6.192;2023-05-07T07:39:20;10.40;;;7.07;;
18102;SDS011;9178;51.120;6.192;2023-05-07T07:41:48;9.50;;;7.13;;
18102;SDS011;9178;51.120;6.192;2023-05-07T07:44:14;9.02;;;6.78;;
18102;SDS011;9178;51.120;6.192;2023-05-07T07:46:42;10.63;;;7.28;;
18102;SDS011;9178;51.120;6.192;2023-05-07T07:49:08;9.95;;;6.95;;
18102;SDS011;9178;51.120;6.192;2023-05-07T07:51:35;9.55;;;6.05;;
18102;SDS011;9178;51.120;6.192;2023-05-07T07:54:02;8.00;;;5.10;;
18102;SDS011;9178;51.120;6.192;2023-05-07T07:56:29;6.82;;;5.03;;
18102;SDS011;9178;51.120;6.192;2023-05-07T07:58:57;7.35;;;5.50;;
18102;SDS011;9178;51.120;6.192;2023-05-07T08:01:24;8.02;;;5.72;;
18102;SDS011;9178;51.120;6.192;2023-05-07T08:03:51;10.27;;;5.43;;
18102;SDS011;9178;51.120;6.192;2023-05-07T08:06:18;6.18;;;5.15;;
18102;SDS011;9178;51.120;6.192;2023-05-07T08:08:44;7.28;;;5.20;;
18102;SDS011;9178;51.120;6.192;2023-05-07T08:11:11;10.07;;;5.53;;
18102;SDS011;9178;51.120;6.192;2023-05-07T08:13:38;5.80;;;4.95;;
18102;SDS011;9178;51.120;6.192;2023-05-07T08:16:06;5.57;;;3.95;;
18102;SDS011;9178;51.120;6.192;2023-05-07T08:18:33;6.88;;;4.50;;
18102;SDS011;9178;51.120;6.192;2023-05-07T08:21:00;4.78;;;4.28;;
18102;SDS011;9178;51.120;6.192;2023-05-07T08:23:27;5.40;;;4.22;;
18102;SDS011;9178;51.120;6.192;2023-05-07T08:25:54;4.38;;;3.90;;
18102;SDS011;9178;51.120;6.192;2023-05-07T08:28:20;4.53;;;3.38;;
18102;SDS011;9178;51.120;6.192;2023-05-07T08:30:49;5.35;;;3.35;;
18102;SDS011;9178;51.120;6.192;2023-05-07T08:33:17;5.20;;;3.40;;
18102;SDS011;9178;51.120;6.192;2023-05-07T08:35:44;12.73;;;3.75;;
18102;SDS011;9178;51.120;6.192;2023-05-07T08:38:11;5.70;;;3.72;;
18102;SDS011;9178;51.120;6.192;2023-05-07T08:40:38;5.60;;;3.33;;
18102;SDS011;9178;51.120;6.192;2023-05-07T08:43:06;4.13;;;3.00;;
18102;SDS011;9178;51.120;6.192;2023-05-07T08:45:34;5.53;;;2.75;;
18102;SDS011;9178;51.120;6.192;2023-05-07T08:48:02;6.28;;;2.70;;
18102;SDS011;9178;51.120;6.192;2023-05-07T08:50:32;4.32;;;3.00;;
18102;SDS011;9178;51.120;6.192;2023-05-07T08:53:02;3.03;;;2.30;;
18102;SDS011;9178;51.120;6.192;2023-05-07T08:55:29;4.00;;;3.03;;
18102;SDS011;9178;51.120;6.192;2023-05-07T08:57:56;5.28;;;2.88;;
18102;SDS011;9178;51.120;6.192;2023-05-07T09:00:23;3.60;;;3.08;;
18102;SDS011;9178;51.120;6.192;2023-05-07T09:02:51;4.60;;;2.80;;
18102;SDS011;9178;51.120;6.192;2023-05-07T09:05:18;5.47;;;2.78;;
18102;SDS011;9178;51.120;6.192;2023-05-07T09:07:47;3.95;;;2.65;;
18102;SDS011;9178;51.120;6.192;2023-05-07T09:10:15;3.60;;;2.45;;
18102;SDS011;9178;51.120;6.192;2023-05-07T09:12:42;6.55;;;2.63;;
18102;SDS011;9178;51.120;6.192;2023-05-07T09:15:09;3.05;;;2.47;;
18102;SDS011;9178;51.120;6.192;2023-05-07T09:17:37;6.95;;;2.80;;
18102;SDS011;9178;51.120;6.192;2023-05-07T09:20:06;2.58;;;2.13;;
18102;SDS011;9178;51.120;6.192;2023-05-07T09:22:34;2.35;;;1.95;;
18102;SDS011;9178;51.120;6.192;2023-05-07T09:25:08;4.47;;;2.20;;
18102;SDS011;9178;51.120;6.192;2023-05-07T09:27:35;2.78;;;2.28;;
18102;SDS011;9178;51.120;6.192;2023-05-07T09:30:03;2.75;;;1.95;;
18102;SDS011;9178;51.120;6.192;2023-05-07T09:32:34;2.00;;;1.80;;
18102;SDS011;9178;51.120;6.192;2023-05-07T09:35:03;4.38;;;2.30;;
18102;SDS011;9178;51.120;6.192;2023-05-07T09:37:30;3.55;;;2.10;;
18102;SDS011;9178;51.120;6.192;2023-05-07T09:40:04;3.13;;;2.33;;
18102;SDS011;9178;51.120;6.192;2023-05-07T09:42:36;3.05;;;1.95;;
18102;SDS011;9178;51.120;6.192;2023-05-07T09:45:05;2.28;;;1.90;;
18102;SDS011;9178;51.120;6.192;2023-05-07T09:47:33;3.45;;;1.88;;
18102;SDS011;9178;51.120;6.192;2023-05-07T09:50:05;4.90;;;1.92;;
18102;SDS011;9178;51.120;6.192;2023-05-07T09:52:35;4.03;;;1.92;;
18102;SDS011;9178;51.120;6.192;2023-05-07T09:55:10;3.35;;;1.83;;
18102;SDS011;9178;51.120;6.192;2023-05-07T09:57:42;2.78;;;1.55;;
18102;SDS011;9178;51.120;6.192;2023-05-07T10:00:10;1.77;;;1.40;;
18102;SDS011;9178;51.120;6.192;2023-05-07T10:02:39;3.25;;;1.40;;
18102;SDS011;9178;51.120;6.192;2023-05-07T10:05:11;2.50;;;1.20;;
18102;SDS011;9178;51.120;6.192;2023-05-07T10:07:43;1.55;;;1.10;;
18102;SDS011;9178;51.120;6.192;2023-05-07T10:10:11;1.48;;;1.25;;
18102;SDS011;9178;51.120;6.192;2023-05-07T10:12:39;3.05;;;1.48;;
18102;SDS011;9178;51.120;6.192;2023-05-07T10:15:09;1.60;;;1.50;;
18102;SDS011;9178;51.120;6.192;2023-05-07T10:17:37;6.45;;;3.10;;
18102;SDS011;9178;51.120;6.192;2023-05-07T10:20:07;2.03;;;1.73;;
18102;SDS011;9178;51.120;6.192;2023-05-07T10:22:37;1.63;;;1.38;;
18102;SDS011;9178;51.120;6.192;2023-05-07T10:25:06;3.35;;;1.90;;
18102;SDS011;9178;51.120;6.192;2023-05-07T10:27:50;3.30;;;1.77;;
18102;SDS011;9178;51.120;6.192;2023-05-07T10:30:22;2.28;;;1.83;;
18102;SDS011;9178;51.120;6.192;2023-05-07T10:32:59;4.13;;;1.75;;
18102;SDS011;9178;51.120;6.192;2023-05-07T10:35:38;2.00;;;1.80;;
18102;SDS011;9178;51.120;6.192;2023-05-07T10:38:07;2.13;;;1.65;;
18102;SDS011;9178;51.120;6.192;2023-05-07T10:40:35;2.55;;;1.50;;
18102;SDS011;9178;51.120;6.192;2023-05-07T10:43:04;1.92;;;1.30;;
18102;SDS011;9178;51.120;6.192;2023-05-07T10:45:31;4.47;;;1.40;;
18102;SDS011;9178;51.120;6.192;2023-05-07T10:48:09;1.27;;;0.93;;
18102;SDS011;9178;51.120;6.192;2023-05-07T10:50:43;3.55;;;1.10;;
18102;SDS011;9178;51.120;6.192;2023-05-07T10:53:21;5.15;;;0.98;;
18102;SDS011;9178;51.120;6.192;2023-05-07T10:58:56;1.65;;;1.23;;
18102;SDS011;9178;51.120;6.192;2023-05-07T11:02:00;1.80;;;1.20;;
18102;SDS011;9178;51.120;6.192;2023-05-07T11:04:29;2.60;;;1.05;;
18102;SDS011;9178;51.120;6.192;2023-05-07T11:09:59;1.73;;;1.13;;
18102;SDS011;9178;51.120;6.192;2023-05-07T11:12:46;1.50;;;1.23;;
18102;SDS011;9178;51.120;6.192;2023-05-07T11:18:17;1.80;;;1.30;;
18102;SDS011;9178;51.120;6.192;2023-05-07T11:20:51;1.48;;;1.38;;
18102;SDS011;9178;51.120;6.192;2023-05-07T11:26:47;1.40;;;1.30;;
18102;SDS011;9178;51.120;6.192;2023-05-07T11:29:17;2.35;;;1.50;;
18102;SDS011;9178;51.120;6.192;2023-05-07T11:31:50;2.10;;;1.20;;
18102;SDS011;9178;51.120;6.192;2023-05-07T11:34:20;2.65;;;1.52;;
18102;SDS011;9178;51.120;6.192;2023-05-07T11:36:47;3.20;;;1.90;;
18102;SDS011;9178;51.120;6.192;2023-05-07T11:39:28;1.92;;;1.35;;
18102;SDS011;9178;51.120;6.192;2023-05-07T11:41:58;1.40;;;1.30;;
18102;SDS011;9178;51.120;6.192;2023-05-07T11:44:38;1.98;;;1.27;;
18102;SDS011;9178;51.120;6.192;2023-05-07T11:47:11;1.25;;;1.10;;
18102;SDS011;9178;51.120;6.192;2023-05-07T11:49:45;2.08;;;1.27;;
18102;SDS011;9178;51.120;6.192;2023-05-07T11:52:13;3.22;;;1.00;;
18102;SDS011;9178;51.120;6.192;2023-05-07T11:54:41;1.50;;;0.70;;
18102;SDS011;9178;51.120;6.192;2023-05-07T11:57:14;1.65;;;1.00;;
18102;SDS011;9178;51.120;6.192;2023-05-07T11:59:41;1.45;;;1.10;;
18102;SDS011;9178;51.120;6.192;2023-05-07T12:02:10;1.65;;;1.10;;
18102;SDS011;9178;51.120;6.192;2023-05-07T12:04:42;1.80;;;0.80;;
18102;SDS011;9178;51.120;6.192;2023-05-07T12:07:12;1.33;;;0.90;;
18102;SDS011;9178;51.120;6.192;2023-05-07T12:09:40;2.70;;;1.35;;
18102;SDS011;9178;51.120;6.192;2023-05-07T12:12:07;1.30;;;1.20;;
18102;SDS011;9178;51.120;6.192;2023-05-07T12:14:37;2.85;;;1.50;;
18102;SDS011;9178;51.120;6.192;2023-05-07T12:17:06;1.45;;;1.20;;
18102;SDS011;9178;51.120;6.192;2023-05-07T12:19:39;1.98;;;1.60;;
18102;SDS011;9178;51.120;6.192;2023-05-07T12:22:07;2.55;;;1.00;;
18102;SDS011;9178;51.120;6.192;2023-05-07T12:24:43;1.58;;;1.10;;
18102;SDS011;9178;51.120;6.192;2023-05-07T12:27:11;3.60;;;1.15;;
18102;SDS011;9178;51.120;6.192;2023-05-07T12:29:39;3.05;;;1.38;;
18102;SDS011;9178;51.120;6.192;2023-05-07T12:32:14;1.30;;;1.17;;
18102;SDS011;9178;51.120;6.192;2023-05-07T12:35:07;2.25;;;1.00;;
18102;SDS011;9178;51.120;6.192;2023-05-07T12:37:36;2.50;;;1.08;;
18102;SDS011;9178;51.120;6.192;2023-05-07T12:40:03;5.50;;;4.05;;
18102;SDS011;9178;51.120;6.192;2023-05-07T12:42:39;5.63;;;4.35;;
18102;SDS011;9178;51.120;6.192;2023-05-07T12:45:08;4.55;;;1.80;;
18102;SDS011;9178;51.120;6.192;2023-05-07T12:47:35;9.13;;;6.40;;
18102;SDS011;9178;51.120;6.192;2023-05-07T12:50:04;5.93;;;4.13;;
18102;SDS011;9178;51.120;6.192;2023-05-07T12:52:33;3.60;;;2.75;;
18102;SDS011;9178;51.120;6.192;2023-05-07T12:55:04;6.88;;;3.50;;
18102;SDS011;9178;51.120;6.192;2023-05-07T12:57:31;3.85;;;2.67;;
18102;SDS011;9178;51.120;6.192;2023-05-07T13:00:06;5.00;;;3.03;;
18102;SDS011;9178;51.120;6.192;2023-05-07T13:02:37;22.67;;;15.80;;
18102;SDS011;9178;51.120;6.192;2023-05-07T13:05:05;5.38;;;3.33;;
18102;SDS011;9178;51.120;6.192;2023-05-07T13:07:38;1.73;;;1.30;;
18102;SDS011;9178;51.120;6.192;2023-05-07T13:10:07;2.00;;;1.15;;
18102;SDS011;9178;51.120;6.192;2023-05-07T13:12:50;1.63;;;0.90;;
18102;SDS011;9178;51.120;6.192;2023-05-07T13:15:17;3.75;;;2.30;;
18102;SDS011;9178;51.120;6.192;2023-05-07T13:17:48;4.03;;;3.63;;
18102;SDS011;9178;51.120;6.192;2023-05-07T13:20:17;4.90;;;4.05;;
18102;SDS011;9178;51.120;6.192;2023-05-07T13:22:44;2.58;;;1.80;;
18102;SDS011;9178;51.120;6.192;2023-05-07T13:27:48;2.63;;;1.17;;
18102;SDS011;9178;51.120;6.192;2023-05-07T13:30:15;2.58;;;1.10;;
18102;SDS011;9178;51.120;6.192;2023-05-07T13:32:42;8.93;;;1.95;;
18102;SDS011;9178;51.120;6.192;2023-05-07T13:35:10;4.43;;;1.80;;
18102;SDS011;9178;51.120;6.192;2023-05-07T13:37:38;4.35;;;2.20;;
18102;SDS011;9178;51.120;6.192;2023-05-07T13:40:06;3.85;;;2.15;;
18102;SDS011;9178;51.120;6.192;2023-05-07T13:42:34;5.15;;;2.90;;
18102;SDS011;9178;51.120;6.192;2023-05-07T13:45:01;3.92;;;2.40;;
18102;SDS011;9178;51.120;6.192;2023-05-07T13:47:36;3.78;;;2.25;;
18102;SDS011;9178;51.120;6.192;2023-05-07T13:50:03;2.75;;;2.33;;
18102;SDS011;9178;51.120;6.192;2023-05-07T13:52:31;7.45;;;3.17;;
18102;SDS011;9178;51.120;6.192;2023-05-07T13:55:02;4.40;;;3.38;;
18102;SDS011;9178;51.120;6.192;2023-05-07T13:57:29;7.03;;;3.53;;
18102;SDS011;9178;51.120;6.192;2023-05-07T13:59:56;4.88;;;3.30;;
18102;SDS011;9178;51.120;6.192;2023-05-07T14:02:23;4.25;;;3.22;;
18102;SDS011;9178;51.120;6.192;2023-05-07T14:04:50;7.07;;;3.90;;
18102;SDS011;9178;51.120;6.192;2023-05-07T14:07:17;6.32;;;4.40;;
18102;SDS011;9178;51.120;6.192;2023-05-07T14:09:46;4.72;;;4.30;;
18102;SDS011;9178;51.120;6.192;2023-05-07T14:12:24;6.47;;;4.75;;
18102;SDS011;9178;51.120;6.192;2023-05-07T14:14:51;11.75;;;5.30;;
18102;SDS011;9178;51.120;6.192;2023-05-07T14:17:18;5.15;;;4.50;;
18102;SDS011;9178;51.120;6.192;2023-05-07T14:19:53;4.72;;;4.03;;
18102;SDS011;9178;51.120;6.192;2023-05-07T14:22:20;5.18;;;4.28;;
18102;SDS011;9178;51.120;6.192;2023-05-07T14:24:48;5.90;;;4.28;;
18102;SDS011;9178;51.120;6.192;2023-05-07T14:27:15;6.60;;;4.82;;
18102;SDS011;9178;51.120;6.192;2023-05-07T14:29:53;6.15;;;4.85;;
18102;SDS011;9178;51.120;6.192;2023-05-07T14:32:20;10.10;;;5.22;;
18102;SDS011;9178;51.120;6.192;2023-05-07T14:34:48;6.18;;;4.50;;
18102;SDS011;9178;51.120;6.192;2023-05-07T14:37:16;6.57;;;4.78;;
18102;SDS011;9178;51.120;6.192;2023-05-07T14:39:44;6.25;;;5.03;;
18102;SDS011;9178;51.120;6.192;2023-05-07T14:42:11;4.95;;;4.47;;
18102;SDS011;9178;51.120;6.192;2023-05-07T14:44:38;5.90;;;4.03;;
18102;SDS011;9178;51.120;6.192;2023-05-07T14:47:07;5.25;;;3.40;;
18102;SDS011;9178;51.120;6.192;2023-05-07T14:49:35;5.32;;;3.72;;
18102;SDS011;9178;51.120;6.192;2023-05-07T14:52:02;4.20;;;3.15;;
18102;SDS011;9178;51.120;6.192;2023-05-07T14:54:33;5.55;;;4.00;;
18102;SDS011;9178;51.120;6.192;2023-05-07T14:57:00;4.38;;;3.53;;
18102;SDS011;9178;51.120;6.192;2023-05-07T14:59:27;3.70;;;3.35;;
18102;SDS011;9178;51.120;6.192;2023-05-07T15:01:55;6.68;;;3.85;;
18102;SDS011;9178;51.120;6.192;2023-05-07T15:04:23;6.45;;;3.90;;
18102;SDS011;9178;51.120;6.192;2023-05-07T15:06:50;6.10;;;4.35;;
18102;SDS011;9178;51.120;6.192;2023-05-07T15:09:21;4.45;;;3.90;;
18102;SDS011;9178;51.120;6.192;2023-05-07T15:11:48;7.03;;;4.13;;
18102;SDS011;9178;51.120;6.192;2023-05-07T15:14:18;4.85;;;4.35;;